sensor_id;sensor_type;location;lat;lon;timestamp;P1;durP1;ratioP1;P2;durP2;ratioP2
12585;SDS011;6358;50.760;0.282;2023-03-07T00:00:33;1.97;;;1.10;;
12585;SDS011;6358;50.760;0.282;2023-03-07T00:03:00;3.87;;;1.90;;
12585;SDS011;6358;50.760;0.282;2023-03-07T00:05:26;1.40;;;1.23;;
12585;SDS011;6358;50.760;0.282;2023-03-07T00:07:52;1.53;;;1.20;;
12585;SDS011;6358;50.760;0.282;2023-03-07T00:10:18;1.73;;;1.13;;
12585;SDS011;6358;50.760;0.282;2023-03-07T00:12:44;3.43;;;1.43;;
12585;SDS011;6358;50.760;0.282;2023-03-07T00:15:10;2.20;;;1.33;;
12585;SDS011;6358;50.760;0.282;2023-03-07T00:17:37;1.80;;;1.10;;
12585;SDS011;6358;50.760;0.282;2023-03-07T00:20:04;1.10;;;1.00;;
12585;SDS011;6358;50.760;0.282;2023-03-07T00:22:33;1.33;;;1.13;;
12585;SDS011;6358;50.760;0.282;2023-03-07T00:25:00;1.60;;;1.20;;
12585;SDS011;6358;50.760;0.282;2023-03-07T00:27:26;2.70;;;1.20;;
12585;SDS011;6358;50.760;0.282;2023-03-07T00:29:54;1.10;;;0.90;;
12585;SDS011;6358;50.760;0.282;2023-03-07T00:32:20;1.40;;;1.10;;
12585;SDS011;6358;50.760;0.282;2023-03-07T00:34:46;1.93;;;0.90;;
12585;SDS011;6358;50.760;0.282;2023-03-07T00:37:12;3.60;;;1.20;;
12585;SDS011;6358;50.760;0.282;2023-03-07T00:39:39;2.10;;;1.23;;
12585;SDS011;6358;50.760;0.282;2023-03-07T00:42:05;2.23;;;1.10;;
12585;SDS011;6358;50.760;0.282;2023-03-07T00:44:32;1.97;;;1.20;;
12585;SDS011;6358;50.760;0.282;2023-03-07T00:46:58;1.87;;;0.97;;
12585;SDS011;6358;50.760;0.282;2023-03-07T00:49:24;1.20;;;1.10;;
12585;SDS011;6358;50.760;0.282;2023-03-07T00:51:50;1.40;;;1.07;;
12585;SDS011;6358;50.760;0.282;2023-03-07T00:54:16;1.80;;;1.00;;
12585;SDS011;6358;50.760;0.282;2023-03-07T00:56:43;1.47;;;1.10;;
12585;SDS011;6358;50.760;0.282;2023-03-07T00:59:09;1.77;;;0.80;;
12585;SDS011;6358;50.760;0.282;2023-03-07T01:01:35;1.13;;;0.90;;
12585;SDS011;6358;50.760;0.282;2023-03-07T01:04:01;1.37;;;1.10;;
12585;SDS011;6358;50.760;0.282;2023-03-07T01:06:28;1.27;;;0.90;;
12585;SDS011;6358;50.760;0.282;2023-03-07T01:08:56;1.03;;;0.90;;
12585;SDS011;6358;50.760;0.282;2023-03-07T01:11:23;1.20;;;1.10;;
12585;SDS011;6358;50.760;0.282;2023-03-07T01:13:49;1.23;;;0.90;;
12585;SDS011;6358;50.760;0.282;2023-03-07T01:16:19;1.50;;;0.90;;
12585;SDS011;6358;50.760;0.282;2023-03-07T01:18:53;1.13;;;0.90;;
12585;SDS011;6358;50.760;0.282;2023-03-07T01:21:23;1.17;;;1.07;;
12585;SDS011;6358;50.760;0.282;2023-03-07T01:23:50;1.57;;;1.03;;
12585;SDS011;6358;50.760;0.282;2023-03-07T01:26:18;1.67;;;1.07;;
12585;SDS011;6358;50.760;0.282;2023-03-07T01:28:44;1.33;;;0.90;;
12585;SDS011;6358;50.760;0.282;2023-03-07T01:31:11;1.33;;;0.87;;
12585;SDS011;6358;50.760;0.282;2023-03-07T01:33:37;1.23;;;0.80;;
12585;SDS011;6358;50.760;0.282;2023-03-07T01:36:03;1.20;;;1.10;;
12585;SDS011;6358;50.760;0.282;2023-03-07T01:38:29;1.10;;;1.00;;
12585;SDS011;6358;50.760;0.282;2023-03-07T01:41:01;1.27;;;0.90;;
12585;SDS011;6358;50.760;0.282;2023-03-07T01:43:32;0.87;;;0.87;;
12585;SDS011;6358;50.760;0.282;2023-03-07T01:48:46;1.33;;;0.90;;
12585;SDS011;6358;50.760;0.282;2023-03-07T01:51:13;2.47;;;1.00;;
12585;SDS011;6358;50.760;0.282;2023-03-07T01:53:39;2.03;;;1.00;;
12585;SDS011;6358;50.760;0.282;2023-03-07T01:56:06;1.90;;;1.10;;
12585;SDS011;6358;50.760;0.282;2023-03-07T01:58:33;1.20;;;1.03;;
12585;SDS011;6358;50.760;0.282;2023-03-07T02:01:01;1.47;;;1.00;;
12585;SDS011;6358;50.760;0.282;2023-03-07T02:05:54;1.90;;;1.10;;
12585;SDS011;6358;50.760;0.282;2023-03-07T02:08:22;1.20;;;1.00;;
12585;SDS011;6358;50.760;0.282;2023-03-07T02:10:49;1.20;;;0.80;;
12585;SDS011;6358;50.760;0.282;2023-03-07T02:13:15;0.90;;;0.80;;
12585;SDS011;6358;50.760;0.282;2023-03-07T02:15:41;2.77;;;1.00;;
12585;SDS011;6358;50.760;0.282;2023-03-07T02:18:08;2.13;;;1.00;;
12585;SDS011;6358;50.760;0.282;2023-03-07T02:23:04;1.17;;;1.00;;
12585;SDS011;6358;50.760;0.282;2023-03-07T02:28:03;2.00;;;0.87;;
12585;SDS011;6358;50.760;0.282;2023-03-07T02:30:30;1.00;;;0.93;;
12585;SDS011;6358;50.760;0.282;2023-03-07T02:32:56;1.30;;;1.00;;
12585;SDS011;6358;50.760;0.282;2023-03-07T02:35:23;1.27;;;1.00;;
12585;SDS011;6358;50.760;0.282;2023-03-07T02:37:58;1.63;;;0.90;;
12585;SDS011;6358;50.760;0.282;2023-03-07T02:40:27;1.90;;;0.90;;
12585;SDS011;6358;50.760;0.282;2023-03-07T02:42:54;1.37;;;0.80;;
12585;SDS011;6358;50.760;0.282;2023-03-07T02:45:22;1.23;;;0.93;;
12585;SDS011;6358;50.760;0.282;2023-03-07T02:47:48;1.20;;;0.90;;
12585;SDS011;6358;50.760;0.282;2023-03-07T02:50:14;0.80;;;0.80;;
12585;SDS011;6358;50.760;0.282;2023-03-07T02:52:40;2.77;;;1.20;;
12585;SDS011;6358;50.760;0.282;2023-03-07T02:55:08;1.20;;;1.00;;
12585;SDS011;6358;50.760;0.282;2023-03-07T02:57:34;1.80;;;1.10;;
12585;SDS011;6358;50.760;0.282;2023-03-07T03:00:01;1.70;;;1.00;;
12585;SDS011;6358;50.760;0.282;2023-03-07T03:02:30;1.10;;;1.00;;
12585;SDS011;6358;50.760;0.282;2023-03-07T03:04:57;1.13;;;0.90;;
12585;SDS011;6358;50.760;0.282;2023-03-07T03:07:23;1.20;;;1.10;;
12585;SDS011;6358;50.760;0.282;2023-03-07T03:09:49;1.13;;;0.90;;
12585;SDS011;6358;50.760;0.282;2023-03-07T03:12:15;1.50;;;1.10;;
12585;SDS011;6358;50.760;0.282;2023-03-07T03:14:42;1.07;;;0.97;;
12585;SDS011;6358;50.760;0.282;2023-03-07T03:17:08;0.90;;;0.87;;
12585;SDS011;6358;50.760;0.282;2023-03-07T03:19:34;1.30;;;1.00;;
12585;SDS011;6358;50.760;0.282;2023-03-07T03:22:00;0.80;;;0.80;;
12585;SDS011;6358;50.760;0.282;2023-03-07T03:24:26;1.10;;;0.97;;
12585;SDS011;6358;50.760;0.282;2023-03-07T03:26:55;2.30;;;1.17;;
12585;SDS011;6358;50.760;0.282;2023-03-07T03:29:22;1.17;;;1.03;;
12585;SDS011;6358;50.760;0.282;2023-03-07T03:31:49;1.27;;;0.87;;
12585;SDS011;6358;50.760;0.282;2023-03-07T03:34:15;1.17;;;0.80;;
12585;SDS011;6358;50.760;0.282;2023-03-07T03:36:42;1.70;;;1.00;;
12585;SDS011;6358;50.760;0.282;2023-03-07T03:39:08;1.77;;;0.90;;
12585;SDS011;6358;50.760;0.282;2023-03-07T03:41:35;1.13;;;0.90;;
12585;SDS011;6358;50.760;0.282;2023-03-07T03:44:02;1.30;;;0.90;;
12585;SDS011;6358;50.760;0.282;2023-03-07T03:46:28;2.57;;;1.10;;
12585;SDS011;6358;50.760;0.282;2023-03-07T03:48:54;1.73;;;0.93;;
12585;SDS011;6358;50.760;0.282;2023-03-07T03:51:21;0.73;;;0.70;;
12585;SDS011;6358;50.760;0.282;2023-03-07T03:53:48;1.23;;;1.10;;
12585;SDS011;6358;50.760;0.282;2023-03-07T03:56:15;0.90;;;0.80;;
12585;SDS011;6358;50.760;0.282;2023-03-07T03:58:42;1.57;;;1.00;;
12585;SDS011;6358;50.760;0.282;2023-03-07T04:01:09;1.50;;;1.10;;
12585;SDS011;6358;50.760;0.282;2023-03-07T04:03:36;1.77;;;1.00;;
12585;SDS011;6358;50.760;0.282;2023-03-07T04:06:04;1.50;;;1.07;;
12585;SDS011;6358;50.760;0.282;2023-03-07T04:08:30;0.97;;;0.90;;
12585;SDS011;6358;50.760;0.282;2023-03-07T04:10:56;1.83;;;1.20;;
12585;SDS011;6358;50.760;0.282;2023-03-07T04:13:23;2.07;;;1.10;;
12585;SDS011;6358;50.760;0.282;2023-03-07T04:15:49;1.47;;;0.90;;
12585;SDS011;6358;50.760;0.282;2023-03-07T04:18:16;1.33;;;1.00;;
12585;SDS011;6358;50.760;0.282;2023-03-07T04:20:43;1.53;;;0.90;;
12585;SDS011;6358;50.760;0.282;2023-03-07T04:23:09;1.33;;;0.80;;
12585;SDS011;6358;50.760;0.282;2023-03-07T04:25:36;1.00;;;0.77;;
12585;SDS011;6358;50.760;0.282;2023-03-07T04:28:02;2.10;;;0.97;;
12585;SDS011;6358;50.760;0.282;2023-03-07T04:30:28;1.23;;;1.00;;
12585;SDS011;6358;50.760;0.282;2023-03-07T04:32:55;1.10;;;1.00;;
12585;SDS011;6358;50.760;0.282;2023-03-07T04:35:21;2.03;;;1.00;;
12585;SDS011;6358;50.760;0.282;2023-03-07T04:37:47;1.80;;;1.00;;
12585;SDS011;6358;50.760;0.282;2023-03-07T04:40:14;1.67;;;1.17;;
12585;SDS011;6358;50.760;0.282;2023-03-07T04:42:40;1.80;;;1.03;;
12585;SDS011;6358;50.760;0.282;2023-03-07T04:45:07;1.87;;;1.00;;
12585;SDS011;6358;50.760;0.282;2023-03-07T04:47:33;0.80;;;0.80;;
12585;SDS011;6358;50.760;0.282;2023-03-07T04:49:59;1.83;;;1.20;;
12585;SDS011;6358;50.760;0.282;2023-03-07T04:52:25;1.00;;;0.90;;
12585;SDS011;6358;50.760;0.282;2023-03-07T04:54:51;1.13;;;0.90;;
12585;SDS011;6358;50.760;0.282;2023-03-07T04:57:17;1.80;;;0.90;;
12585;SDS011;6358;50.760;0.282;2023-03-07T04:59:43;1.57;;;0.90;;
12585;SDS011;6358;50.760;0.282;2023-03-07T05:02:11;1.37;;;1.13;;
12585;SDS011;6358;50.760;0.282;2023-03-07T05:04:37;2.17;;;1.10;;
12585;SDS011;6358;50.760;0.282;2023-03-07T05:07:03;1.03;;;0.90;;
12585;SDS011;6358;50.760;0.282;2023-03-07T05:09:30;1.50;;;1.00;;
12585;SDS011;6358;50.760;0.282;2023-03-07T05:11:56;1.03;;;0.90;;
12585;SDS011;6358;50.760;0.282;2023-03-07T05:14:22;1.77;;;0.90;;
12585;SDS011;6358;50.760;0.282;2023-03-07T05:16:48;1.63;;;0.87;;
12585;SDS011;6358;50.760;0.282;2023-03-07T05:19:14;1.00;;;0.90;;
12585;SDS011;6358;50.760;0.282;2023-03-07T05:21:40;0.77;;;0.77;;
12585;SDS011;6358;50.760;0.282;2023-03-07T05:24:08;1.00;;;0.80;;
12585;SDS011;6358;50.760;0.282;2023-03-07T05:26:34;1.87;;;1.20;;
12585;SDS011;6358;50.760;0.282;2023-03-07T05:29:00;1.63;;;1.10;;
12585;SDS011;6358;50.760;0.282;2023-03-07T05:31:26;1.37;;;1.00;;
12585;SDS011;6358;50.760;0.282;2023-03-07T05:33:53;1.90;;;1.10;;
12585;SDS011;6358;50.760;0.282;2023-03-07T05:36:19;1.03;;;0.90;;
12585;SDS011;6358;50.760;0.282;2023-03-07T05:38:45;2.47;;;1.30;;
12585;SDS011;6358;50.760;0.282;2023-03-07T05:41:11;1.43;;;1.07;;
12585;SDS011;6358;50.760;0.282;2023-03-07T05:43:37;0.90;;;0.90;;
12585;SDS011;6358;50.760;0.282;2023-03-07T05:46:03;2.10;;;1.23;;
12585;SDS011;6358;50.760;0.282;2023-03-07T05:48:29;1.57;;;1.10;;
12585;SDS011;6358;50.760;0.282;2023-03-07T05:50:58;1.90;;;1.13;;
12585;SDS011;6358;50.760;0.282;2023-03-07T05:53:27;2.67;;;0.93;;
12585;SDS011;6358;50.760;0.282;2023-03-07T05:55:53;2.53;;;0.90;;
12585;SDS011;6358;50.760;0.282;2023-03-07T05:58:19;1.73;;;1.10;;
12585;SDS011;6358;50.760;0.282;2023-03-07T06:00:45;2.37;;;1.10;;
12585;SDS011;6358;50.760;0.282;2023-03-07T06:03:12;2.07;;;1.00;;
12585;SDS011;6358;50.760;0.282;2023-03-07T06:05:38;1.40;;;1.00;;
12585;SDS011;6358;50.760;0.282;2023-03-07T06:08:04;2.23;;;0.97;;
12585;SDS011;6358;50.760;0.282;2023-03-07T06:10:31;1.87;;;1.00;;
12585;SDS011;6358;50.760;0.282;2023-03-07T06:12:58;1.10;;;0.90;;
12585;SDS011;6358;50.760;0.282;2023-03-07T06:15:24;1.50;;;0.93;;
12585;SDS011;6358;50.760;0.282;2023-03-07T06:17:50;1.20;;;1.00;;
12585;SDS011;6358;50.760;0.282;2023-03-07T06:20:19;1.57;;;0.97;;
12585;SDS011;6358;50.760;0.282;2023-03-07T06:22:45;1.53;;;0.90;;
12585;SDS011;6358;50.760;0.282;2023-03-07T06:25:12;1.57;;;1.00;;
12585;SDS011;6358;50.760;0.282;2023-03-07T06:27:39;0.97;;;0.90;;
12585;SDS011;6358;50.760;0.282;2023-03-07T06:30:06;1.97;;;1.10;;
12585;SDS011;6358;50.760;0.282;2023-03-07T06:32:33;1.23;;;0.87;;
12585;SDS011;6358;50.760;0.282;2023-03-07T06:34:59;2.23;;;1.10;;
12585;SDS011;6358;50.760;0.282;2023-03-07T06:37:25;0.97;;;0.83;;
12585;SDS011;6358;50.760;0.282;2023-03-07T06:39:54;1.67;;;1.07;;
12585;SDS011;6358;50.760;0.282;2023-03-07T06:42:20;1.83;;;1.00;;
12585;SDS011;6358;50.760;0.282;2023-03-07T06:44:46;1.87;;;1.10;;
12585;SDS011;6358;50.760;0.282;2023-03-07T06:47:12;1.40;;;1.00;;
12585;SDS011;6358;50.760;0.282;2023-03-07T06:49:38;1.20;;;0.90;;
12585;SDS011;6358;50.760;0.282;2023-03-07T06:52:04;0.97;;;0.77;;
12585;SDS011;6358;50.760;0.282;2023-03-07T06:54:31;1.33;;;1.13;;
12585;SDS011;6358;50.760;0.282;2023-03-07T06:56:57;1.33;;;1.03;;
12585;SDS011;6358;50.760;0.282;2023-03-07T06:59:23;1.20;;;1.03;;
12585;SDS011;6358;50.760;0.282;2023-03-07T07:01:49;1.87;;;1.20;;
12585;SDS011;6358;50.760;0.282;2023-03-07T07:04:15;1.27;;;1.00;;
12585;SDS011;6358;50.760;0.282;2023-03-07T07:06:41;1.47;;;0.97;;
12585;SDS011;6358;50.760;0.282;2023-03-07T07:09:10;1.97;;;1.13;;
12585;SDS011;6358;50.760;0.282;2023-03-07T07:11:37;1.23;;;0.93;;
12585;SDS011;6358;50.760;0.282;2023-03-07T07:14:03;1.83;;;0.90;;
12585;SDS011;6358;50.760;0.282;2023-03-07T07:16:29;2.17;;;1.10;;
12585;SDS011;6358;50.760;0.282;2023-03-07T07:18:57;1.70;;;1.10;;
12585;SDS011;6358;50.760;0.282;2023-03-07T07:21:23;1.13;;;0.80;;
12585;SDS011;6358;50.760;0.282;2023-03-07T07:23:49;1.43;;;1.00;;
12585;SDS011;6358;50.760;0.282;2023-03-07T07:26:15;1.27;;;0.80;;
12585;SDS011;6358;50.760;0.282;2023-03-07T07:28:41;1.00;;;0.83;;
12585;SDS011;6358;50.760;0.282;2023-03-07T07:31:08;1.43;;;0.97;;
12585;SDS011;6358;50.760;0.282;2023-03-07T07:33:34;1.40;;;0.97;;
12585;SDS011;6358;50.760;0.282;2023-03-07T07:36:00;1.77;;;1.10;;
12585;SDS011;6358;50.760;0.282;2023-03-07T07:38:26;2.40;;;1.00;;
12585;SDS011;6358;50.760;0.282;2023-03-07T07:40:52;5.23;;;1.10;;
12585;SDS011;6358;50.760;0.282;2023-03-07T07:43:20;1.47;;;0.90;;
12585;SDS011;6358;50.760;0.282;2023-03-07T07:45:46;2.27;;;1.00;;
12585;SDS011;6358;50.760;0.282;2023-03-07T07:48:12;4.50;;;1.20;;
12585;SDS011;6358;50.760;0.282;2023-03-07T07:50:38;2.97;;;0.90;;
12585;SDS011;6358;50.760;0.282;2023-03-07T07:53:04;0.83;;;0.80;;
12585;SDS011;6358;50.760;0.282;2023-03-07T07:55:30;1.70;;;1.13;;
12585;SDS011;6358;50.760;0.282;2023-03-07T07:57:56;1.87;;;1.00;;
12585;SDS011;6358;50.760;0.282;2023-03-07T08:00:22;2.40;;;1.10;;
12585;SDS011;6358;50.760;0.282;2023-03-07T08:02:49;1.37;;;0.80;;
12585;SDS011;6358;50.760;0.282;2023-03-07T08:05:16;1.10;;;0.90;;
12585;SDS011;6358;50.760;0.282;2023-03-07T08:07:43;1.23;;;0.80;;
12585;SDS011;6358;50.760;0.282;2023-03-07T08:10:10;1.93;;;1.10;;
12585;SDS011;6358;50.760;0.282;2023-03-07T08:12:39;1.20;;;1.00;;
12585;SDS011;6358;50.760;0.282;2023-03-07T08:15:06;2.20;;;1.07;;
12585;SDS011;6358;50.760;0.282;2023-03-07T08:17:32;3.10;;;1.13;;
12585;SDS011;6358;50.760;0.282;2023-03-07T08:19:58;2.57;;;0.90;;
12585;SDS011;6358;50.760;0.282;2023-03-07T08:22:27;3.27;;;1.33;;
12585;SDS011;6358;50.760;0.282;2023-03-07T08:24:54;2.00;;;1.80;;
12585;SDS011;6358;50.760;0.282;2023-03-07T08:27:20;24.87;;;20.50;;
12585;SDS011;6358;50.760;0.282;2023-03-07T08:29:49;81.17;;;71.63;;
12585;SDS011;6358;50.760;0.282;2023-03-07T08:32:15;153.83;;;134.80;;
12585;SDS011;6358;50.760;0.282;2023-03-07T08:34:41;205.70;;;183.47;;
12585;SDS011;6358;50.760;0.282;2023-03-07T08:37:07;225.33;;;200.70;;
12585;SDS011;6358;50.760;0.282;2023-03-07T08:39:34;236.93;;;211.27;;
12585;SDS011;6358;50.760;0.282;2023-03-07T08:42:00;237.33;;;212.00;;
12585;SDS011;6358;50.760;0.282;2023-03-07T08:44:26;240.60;;;214.53;;
12585;SDS011;6358;50.760;0.282;2023-03-07T08:46:53;237.33;;;212.10;;
12585;SDS011;6358;50.760;0.282;2023-03-07T08:49:19;235.67;;;210.67;;
12585;SDS011;6358;50.760;0.282;2023-03-07T08:51:48;233.93;;;208.57;;
12585;SDS011;6358;50.760;0.282;2023-03-07T08:54:14;232.37;;;207.37;;
12585;SDS011;6358;50.760;0.282;2023-03-07T08:56:40;234.57;;;209.83;;
12585;SDS011;6358;50.760;0.282;2023-03-07T08:59:06;223.13;;;199.07;;
12585;SDS011;6358;50.760;0.282;2023-03-07T09:01:32;218.67;;;195.80;;
12585;SDS011;6358;50.760;0.282;2023-03-07T09:03:58;205.93;;;183.87;;
12585;SDS011;6358;50.760;0.282;2023-03-07T09:06:24;208.20;;;186.03;;
12585;SDS011;6358;50.760;0.282;2023-03-07T09:08:50;199.50;;;177.93;;
12585;SDS011;6358;50.760;0.282;2023-03-07T09:11:17;197.17;;;175.80;;
12585;SDS011;6358;50.760;0.282;2023-03-07T09:13:43;187.77;;;167.60;;
12585;SDS011;6358;50.760;0.282;2023-03-07T09:16:10;184.27;;;163.93;;
12585;SDS011;6358;50.760;0.282;2023-03-07T09:18:36;179.07;;;158.63;;
12585;SDS011;6358;50.760;0.282;2023-03-07T09:21:02;176.17;;;156.23;;
12585;SDS011;6358;50.760;0.282;2023-03-07T09:23:29;168.13;;;149.70;;
12585;SDS011;6358;50.760;0.282;2023-03-07T09:25:58;165.70;;;147.67;;
12585;SDS011;6358;50.760;0.282;2023-03-07T09:28:25;159.23;;;141.93;;
12585;SDS011;6358;50.760;0.282;2023-03-07T09:30:51;153.90;;;137.13;;
12585;SDS011;6358;50.760;0.282;2023-03-07T09:33:17;143.47;;;128.20;;
12585;SDS011;6358;50.760;0.282;2023-03-07T09:35:43;127.33;;;113.57;;
12585;SDS011;6358;50.760;0.282;2023-03-07T09:38:09;135.90;;;121.27;;
12585;SDS011;6358;50.760;0.282;2023-03-07T09:40:35;130.13;;;116.33;;
12585;SDS011;6358;50.760;0.282;2023-03-07T09:43:19;128.50;;;114.87;;
12585;SDS011;6358;50.760;0.282;2023-03-07T09:51:24;112.03;;;100.00;;
12585;SDS011;6358;50.760;0.282;2023-03-07T09:53:43;107.00;;;95.63;;
12585;SDS011;6358;50.760;0.282;2023-03-07T09:56:16;102.70;;;91.63;;
12585;SDS011;6358;50.760;0.282;2023-03-07T09:58:45;97.50;;;87.27;;
12585;SDS011;6358;50.760;0.282;2023-03-07T10:01:12;92.80;;;82.80;;
12585;SDS011;6358;50.760;0.282;2023-03-07T10:03:55;90.27;;;80.67;;
12585;SDS011;6358;50.760;0.282;2023-03-07T10:08:49;74.60;;;66.43;;
12585;SDS011;6358;50.760;0.282;2023-03-07T10:14:04;67.30;;;58.73;;
12585;SDS011;6358;50.760;0.282;2023-03-07T10:17:20;66.33;;;54.30;;
12585;SDS011;6358;50.760;0.282;2023-03-07T10:22:07;59.97;;;52.97;;
12585;SDS011;6358;50.760;0.282;2023-03-07T10:24:40;57.93;;;51.63;;
12585;SDS011;6358;50.760;0.282;2023-03-07T10:27:09;55.20;;;49.20;;
12585;SDS011;6358;50.760;0.282;2023-03-07T10:29:38;58.67;;;48.77;;
12585;SDS011;6358;50.760;0.282;2023-03-07T10:32:28;54.33;;;46.63;;
12585;SDS011;6358;50.760;0.282;2023-03-07T10:34:56;51.33;;;45.20;;
12585;SDS011;6358;50.760;0.282;2023-03-07T10:37:29;48.67;;;43.47;;
12585;SDS011;6358;50.760;0.282;2023-03-07T10:40:00;50.07;;;43.50;;
12585;SDS011;6358;50.760;0.282;2023-03-07T10:42:29;48.83;;;43.50;;
12585;SDS011;6358;50.760;0.282;2023-03-07T10:44:58;44.20;;;39.40;;
12585;SDS011;6358;50.760;0.282;2023-03-07T10:47:25;44.80;;;39.17;;
12585;SDS011;6358;50.760;0.282;2023-03-07T10:50:07;44.03;;;38.57;;
12585;SDS011;6358;50.760;0.282;2023-03-07T10:52:44;42.00;;;34.93;;
12585;SDS011;6358;50.760;0.282;2023-03-07T11:03:25;28.77;;;25.50;;
12585;SDS011;6358;50.760;0.282;2023-03-07T11:05:52;27.70;;;24.83;;
12585;SDS011;6358;50.760;0.282;2023-03-07T11:08:29;27.03;;;23.80;;
12585;SDS011;6358;50.760;0.282;2023-03-07T11:10:56;25.63;;;22.73;;
12585;SDS011;6358;50.760;0.282;2023-03-07T11:13:22;24.77;;;22.10;;
12585;SDS011;6358;50.760;0.282;2023-03-07T11:15:49;22.77;;;20.37;;
12585;SDS011;6358;50.760;0.282;2023-03-07T11:18:29;22.17;;;19.87;;
12585;SDS011;6358;50.760;0.282;2023-03-07T11:20:56;20.80;;;18.60;;
12585;SDS011;6358;50.760;0.282;2023-03-07T11:25:54;18.87;;;17.03;;
12585;SDS011;6358;50.760;0.282;2023-03-07T11:43:38;28.47;;;24.07;;
12585;SDS011;6358;50.760;0.282;2023-03-07T11:46:11;25.67;;;21.83;;
12585;SDS011;6358;50.760;0.282;2023-03-07T11:56:35;26.00;;;21.63;;
12585;SDS011;6358;50.760;0.282;2023-03-07T12:01:39;22.10;;;19.90;;
12585;SDS011;6358;50.760;0.282;2023-03-07T12:07:05;28.00;;;18.30;;
12585;SDS011;6358;50.760;0.282;2023-03-07T12:09:53;17.37;;;15.27;;
12585;SDS011;6358;50.760;0.282;2023-03-07T12:23:04;13.90;;;11.73;;
12585;SDS011;6358;50.760;0.282;2023-03-07T12:28:16;12.47;;;11.17;;
12585;SDS011;6358;50.760;0.282;2023-03-07T12:33:34;12.27;;;10.97;;
12585;SDS011;6358;50.760;0.282;2023-03-07T12:36:06;12.10;;;10.23;;
12585;SDS011;6358;50.760;0.282;2023-03-07T12:38:36;12.93;;;9.53;;
12585;SDS011;6358;50.760;0.282;2023-03-07T12:41:13;10.27;;;9.17;;
12585;SDS011;6358;50.760;0.282;2023-03-07T12:43:45;9.57;;;8.57;;
12585;SDS011;6358;50.760;0.282;2023-03-07T12:51:17;13.80;;;12.40;;
12585;SDS011;6358;50.760;0.282;2023-03-07T12:53:49;12.50;;;11.20;;
12585;SDS011;6358;50.760;0.282;2023-03-07T12:59:13;11.70;;;10.50;;
12585;SDS011;6358;50.760;0.282;2023-03-07T13:01:43;13.77;;;10.03;;
12585;SDS011;6358;50.760;0.282;2023-03-07T13:04:12;11.07;;;7.80;;
12585;SDS011;6358;50.760;0.282;2023-03-07T13:06:40;8.10;;;6.73;;
12585;SDS011;6358;50.760;0.282;2023-03-07T13:09:11;7.23;;;6.53;;
12585;SDS011;6358;50.760;0.282;2023-03-07T13:12:06;6.70;;;6.00;;
12585;SDS011;6358;50.760;0.282;2023-03-07T13:14:40;7.20;;;6.50;;
12585;SDS011;6358;50.760;0.282;2023-03-07T13:17:11;6.87;;;5.57;;
12585;SDS011;6358;50.760;0.282;2023-03-07T13:24:39;6.30;;;5.70;;
12585;SDS011;6358;50.760;0.282;2023-03-07T13:27:25;6.03;;;5.43;;
12585;SDS011;6358;50.760;0.282;2023-03-07T13:32:53;5.57;;;5.03;;
12585;SDS011;6358;50.760;0.282;2023-03-07T13:43:00;4.60;;;4.20;;
12585;SDS011;6358;50.760;0.282;2023-03-07T13:48:12;5.87;;;4.70;;
12585;SDS011;6358;50.760;0.282;2023-03-07T13:55:44;4.70;;;4.03;;
12585;SDS011;6358;50.760;0.282;2023-03-07T13:58:16;3.93;;;3.63;;
12585;SDS011;6358;50.760;0.282;2023-03-07T14:00:50;4.87;;;4.03;;
12585;SDS011;6358;50.760;0.282;2023-03-07T14:05:52;3.73;;;3.30;;
12585;SDS011;6358;50.760;0.282;2023-03-07T14:08:19;3.70;;;3.23;;
12585;SDS011;6358;50.760;0.282;2023-03-07T14:10:47;3.57;;;3.27;;
12585;SDS011;6358;50.760;0.282;2023-03-07T14:29:00;3.03;;;2.73;;
12585;SDS011;6358;50.760;0.282;2023-03-07T14:31:28;3.17;;;2.43;;
12585;SDS011;6358;50.760;0.282;2023-03-07T14:33:54;3.00;;;2.70;;
12585;SDS011;6358;50.760;0.282;2023-03-07T14:36:24;2.50;;;2.30;;
12585;SDS011;6358;50.760;0.282;2023-03-07T14:38:56;2.93;;;2.40;;
12585;SDS011;6358;50.760;0.282;2023-03-07T14:51:41;3.07;;;2.20;;
12585;SDS011;6358;50.760;0.282;2023-03-07T14:54:03;2.00;;;1.87;;
12585;SDS011;6358;50.760;0.282;2023-03-07T14:56:30;2.00;;;1.90;;
12585;SDS011;6358;50.760;0.282;2023-03-07T14:58:57;2.10;;;1.90;;
12585;SDS011;6358;50.760;0.282;2023-03-07T15:01:28;1.80;;;1.70;;
12585;SDS011;6358;50.760;0.282;2023-03-07T15:03:55;2.10;;;1.90;;
12585;SDS011;6358;50.760;0.282;2023-03-07T15:06:23;2.43;;;2.07;;
12585;SDS011;6358;50.760;0.282;2023-03-07T15:08:50;1.83;;;1.70;;
12585;SDS011;6358;50.760;0.282;2023-03-07T15:13:54;2.07;;;1.77;;
12585;SDS011;6358;50.760;0.282;2023-03-07T15:16:23;2.07;;;1.87;;
12585;SDS011;6358;50.760;0.282;2023-03-07T15:18:53;2.30;;;1.60;;
12585;SDS011;6358;50.760;0.282;2023-03-07T15:21:21;1.60;;;1.40;;
12585;SDS011;6358;50.760;0.282;2023-03-07T15:23:55;1.80;;;1.70;;
12585;SDS011;6358;50.760;0.282;2023-03-07T15:26:22;1.53;;;1.43;;
12585;SDS011;6358;50.760;0.282;2023-03-07T15:28:49;1.97;;;1.57;;
12585;SDS011;6358;50.760;0.282;2023-03-07T15:31:22;1.90;;;1.57;;
12585;SDS011;6358;50.760;0.282;2023-03-07T15:33:48;1.50;;;1.40;;
12585;SDS011;6358;50.760;0.282;2023-03-07T15:36:16;1.40;;;1.30;;
12585;SDS011;6358;50.760;0.282;2023-03-07T15:38:49;2.07;;;1.57;;
12585;SDS011;6358;50.760;0.282;2023-03-07T15:41:25;1.40;;;1.30;;
12585;SDS011;6358;50.760;0.282;2023-03-07T15:46:29;3.17;;;1.90;;
12585;SDS011;6358;50.760;0.282;2023-03-07T15:48:55;2.23;;;2.10;;
12585;SDS011;6358;50.760;0.282;2023-03-07T15:51:22;1.63;;;1.40;;
12585;SDS011;6358;50.760;0.282;2023-03-07T15:53:53;1.30;;;1.20;;
12585;SDS011;6358;50.760;0.282;2023-03-07T15:56:25;2.97;;;1.47;;
12585;SDS011;6358;50.760;0.282;2023-03-07T15:58:57;1.50;;;1.40;;
12585;SDS011;6358;50.760;0.282;2023-03-07T16:01:25;2.40;;;1.30;;
12585;SDS011;6358;50.760;0.282;2023-03-07T16:03:52;1.50;;;1.10;;
12585;SDS011;6358;50.760;0.282;2023-03-07T16:06:29;1.20;;;1.10;;
12585;SDS011;6358;50.760;0.282;2023-03-07T16:08:55;1.43;;;1.33;;
12585;SDS011;6358;50.760;0.282;2023-03-07T16:11:21;2.10;;;1.00;;
12585;SDS011;6358;50.760;0.282;2023-03-07T16:13:47;1.20;;;1.10;;
12585;SDS011;6358;50.760;0.282;2023-03-07T16:16:15;1.93;;;1.30;;
12585;SDS011;6358;50.760;0.282;2023-03-07T16:18:44;1.30;;;1.20;;
12585;SDS011;6358;50.760;0.282;2023-03-07T16:21:14;1.30;;;1.20;;
12585;SDS011;6358;50.760;0.282;2023-03-07T16:23:41;1.30;;;1.20;;
12585;SDS011;6358;50.760;0.282;2023-03-07T16:26:09;3.67;;;1.00;;
12585;SDS011;6358;50.760;0.282;2023-03-07T16:28:36;1.53;;;1.10;;
12585;SDS011;6358;50.760;0.282;2023-03-07T16:31:08;1.20;;;1.10;;
12585;SDS011;6358;50.760;0.282;2023-03-07T16:33:35;1.17;;;0.93;;
12585;SDS011;6358;50.760;0.282;2023-03-07T16:36:01;1.70;;;1.10;;
12585;SDS011;6358;50.760;0.282;2023-03-07T16:38:27;1.30;;;1.10;;
12585;SDS011;6358;50.760;0.282;2023-03-07T16:40:53;1.10;;;1.00;;
12585;SDS011;6358;50.760;0.282;2023-03-07T16:43:33;2.67;;;0.97;;
12585;SDS011;6358;50.760;0.282;2023-03-07T16:46:00;2.70;;;1.00;;
12585;SDS011;6358;50.760;0.282;2023-03-07T16:48:26;1.10;;;1.10;;
12585;SDS011;6358;50.760;0.282;2023-03-07T16:50:52;1.23;;;1.13;;
12585;SDS011;6358;50.760;0.282;2023-03-07T16:53:19;1.27;;;1.00;;
12585;SDS011;6358;50.760;0.282;2023-03-07T16:55:45;0.90;;;0.90;;
12585;SDS011;6358;50.760;0.282;2023-03-07T16:58:17;0.93;;;0.93;;
12585;SDS011;6358;50.760;0.282;2023-03-07T17:00:43;1.50;;;0.90;;
12585;SDS011;6358;50.760;0.282;2023-03-07T17:03:09;1.00;;;0.90;;
12585;SDS011;6358;50.760;0.282;2023-03-07T17:05:36;0.83;;;0.83;;
12585;SDS011;6358;50.760;0.282;2023-03-07T17:08:02;3.37;;;1.17;;
12585;SDS011;6358;50.760;0.282;2023-03-07T17:10:28;0.97;;;0.87;;
12585;SDS011;6358;50.760;0.282;2023-03-07T17:12:57;1.53;;;1.20;;
12585;SDS011;6358;50.760;0.282;2023-03-07T17:15:23;1.43;;;1.10;;
12585;SDS011;6358;50.760;0.282;2023-03-07T17:17:54;1.30;;;1.00;;
12585;SDS011;6358;50.760;0.282;2023-03-07T17:20:20;1.20;;;0.97;;